createdAt,value
2018-09-24T00:00:49.738Z,18.10
2018-09-24T00:03:18.359Z,18.10
2018-09-24T00:05:46.791Z,18.10
2018-09-24T00:08:15.257Z,18.10
2018-09-24T00:10:43.704Z,18.10
2018-09-24T00:13:12.242Z,18.00
2018-09-24T00:15:40.709Z,18.00
2018-09-24T00:18:09.165Z,18.00
2018-09-24T00:20:37.897Z,18.00
2018-09-24T00:23:06.340Z,18.00
2018-09-24T00:25:35.053Z,18.00
2018-09-24T00:28:03.498Z,18.00
2018-09-24T00:30:32.041Z,18.00
2018-09-24T00:33:00.464Z,18.00
2018-09-24T00:35:28.984Z,18.00
2018-09-24T00:37:57.435Z,18.00
2018-09-24T00:40:25.990Z,18.00
2018-09-24T00:42:54.384Z,18.00
2018-09-24T00:45:22.903Z,18.00
2018-09-24T00:47:51.552Z,18.00
2018-09-24T00:50:20.072Z,18.00
2018-09-24T00:52:48.597Z,18.00
2018-09-24T00:55:16.992Z,18.00
2018-09-24T00:57:45.528Z,18.00
2018-09-24T01:00:13.928Z,18.00
2018-09-24T01:02:42.421Z,18.00
2018-09-24T01:05:11.310Z,18.00
2018-09-24T01:07:39.781Z,18.00
2018-09-24T01:10:08.807Z,18.00
2018-09-24T01:12:37.353Z,18.00
2018-09-24T01:15:05.937Z,18.00
2018-09-24T01:17:34.322Z,18.00
2018-09-24T01:20:02.856Z,18.00
2018-09-24T01:22:31.285Z,18.00
2018-09-24T01:25:00.099Z,18.00
2018-09-24T01:27:28.831Z,18.00
2018-09-24T01:29:57.350Z,18.00
2018-09-24T01:32:25.838Z,17.90
2018-09-24T01:34:54.443Z,17.90
2018-09-24T01:37:22.975Z,17.90
2018-09-24T01:39:51.552Z,17.90
2018-09-24T01:42:19.938Z,17.90
2018-09-24T01:44:48.460Z,17.90
2018-09-24T01:47:16.972Z,17.90
2018-09-24T01:49:45.428Z,17.90
2018-09-24T01:52:13.893Z,17.90
2018-09-24T01:54:42.379Z,17.90
2018-09-24T01:57:14.322Z,17.90
2018-09-24T01:59:47.787Z,17.90
2018-09-24T02:02:16.632Z,17.90
2018-09-24T02:04:45.148Z,17.90
2018-09-24T02:07:13.758Z,17.90
2018-09-24T02:09:42.281Z,17.90
2018-09-24T02:12:10.865Z,17.90
2018-09-24T02:14:39.652Z,17.90
2018-09-24T02:17:14.887Z,17.90
2018-09-24T02:19:44.019Z,17.90
2018-09-24T02:22:12.892Z,17.90
2018-09-24T02:24:41.320Z,17.90
2018-09-24T02:27:11.012Z,17.90
2018-09-24T02:29:39.953Z,17.90
2018-09-24T02:32:08.428Z,17.90
2018-09-24T02:34:36.897Z,17.90
2018-09-24T02:37:05.385Z,17.90
2018-09-24T02:39:33.830Z,17.90
2018-09-24T02:42:02.337Z,17.80
2018-09-24T02:44:30.784Z,17.80
2018-09-24T02:46:59.261Z,17.90
2018-09-24T02:49:27.741Z,17.80
2018-09-24T02:52:01.804Z,17.80
2018-09-24T02:54:30.676Z,17.80
2018-09-24T02:56:59.157Z,17.80
2018-09-24T02:59:27.600Z,17.80
2018-09-24T03:01:56.191Z,17.80
2018-09-24T03:04:24.638Z,17.80
2018-09-24T03:06:53.119Z,17.80
2018-09-24T03:09:21.528Z,17.80
2018-09-24T03:11:50.010Z,17.80
2018-09-24T03:14:27.395Z,17.80
2018-09-24T03:16:55.799Z,17.80
2018-09-24T03:19:24.352Z,17.80
2018-09-24T03:21:53.045Z,17.80
2018-09-24T03:24:21.424Z,17.80
2018-09-24T03:26:49.900Z,17.80
2018-09-24T03:29:21.973Z,17.80
2018-09-24T03:31:50.368Z,17.80
2018-09-24T03:34:19.433Z,17.80
2018-09-24T03:36:48.610Z,17.80
2018-09-24T03:39:17.244Z,17.80
2018-09-24T03:41:45.999Z,17.80
2018-09-24T03:44:14.792Z,17.80
2018-09-24T03:46:43.263Z,17.80
2018-09-24T03:49:12.061Z,17.80
2018-09-24T03:51:40.490Z,17.80
2018-09-24T03:54:10.346Z,17.80
2018-09-24T03:56:38.826Z,17.80
2018-09-24T03:59:07.544Z,17.80
2018-09-24T04:01:35.984Z,17.70
2018-09-24T04:04:09.944Z,17.80
2018-09-24T04:06:43.816Z,17.70
2018-09-24T04:09:17.632Z,17.70
2018-09-24T04:11:51.581Z,17.70
2018-09-24T04:14:25.422Z,17.70
2018-09-24T04:16:59.334Z,17.70
2018-09-24T04:19:33.244Z,17.70
2018-09-24T04:22:06.971Z,17.70
2018-09-24T04:24:40.951Z,17.70
2018-09-24T04:27:14.734Z,17.70
2018-09-24T04:29:52.553Z,17.70
2018-09-24T04:32:26.467Z,17.70
2018-09-24T04:35:00.262Z,17.70
2018-09-24T04:37:34.299Z,17.70
2018-09-24T04:40:08.022Z,17.70
2018-09-24T04:42:42.127Z,17.70
2018-09-24T04:45:15.998Z,17.70
2018-09-24T04:47:49.857Z,17.70
2018-09-24T04:50:23.708Z,17.70
2018-09-24T04:52:57.449Z,17.70
2018-09-24T04:55:31.459Z,17.70
2018-09-24T04:58:05.373Z,17.70
2018-09-24T05:00:39.309Z,17.70
2018-09-24T05:03:12.976Z,17.70
2018-09-24T05:05:47.057Z,17.70
2018-09-24T05:08:20.888Z,17.60
2018-09-24T05:10:54.664Z,17.70
2018-09-24T05:13:28.572Z,17.60
2018-09-24T05:16:02.391Z,17.60
2018-09-24T05:18:36.158Z,17.70
2018-09-24T05:21:09.904Z,17.60
2018-09-24T05:23:43.792Z,17.60
2018-09-24T05:26:17.501Z,17.60
2018-09-24T05:28:51.397Z,17.60
2018-09-24T05:31:25.276Z,17.60
2018-09-24T05:33:59.276Z,17.60
2018-09-24T05:36:33.304Z,17.60
2018-09-24T05:39:07.052Z,17.60
2018-09-24T05:41:41.020Z,17.60
2018-09-24T05:44:14.715Z,17.60
2018-09-24T05:46:48.520Z,17.60
2018-09-24T05:49:22.360Z,17.60
2018-09-24T05:51:56.077Z,17.60
2018-09-24T05:54:34.431Z,17.60
2018-09-24T05:57:08.496Z,17.60
2018-09-24T05:59:42.360Z,17.60
2018-09-24T06:02:16.096Z,17.60
2018-09-24T06:04:49.892Z,17.60
2018-09-24T06:07:23.779Z,17.60
2018-09-24T06:09:57.637Z,17.60
2018-09-24T06:12:31.616Z,17.60
2018-09-24T06:15:05.268Z,17.60
2018-09-24T06:17:39.242Z,17.60
2018-09-24T06:20:12.844Z,17.60
2018-09-24T06:22:46.637Z,17.60
2018-09-24T06:25:20.372Z,17.60
2018-09-24T06:27:54.212Z,17.60
2018-09-24T06:30:28.037Z,17.60
2018-09-24T06:33:01.853Z,17.60
2018-09-24T06:35:35.666Z,17.60
2018-09-24T06:38:09.473Z,17.60
2018-09-24T06:40:43.242Z,17.60
2018-09-24T06:43:17.113Z,17.60
2018-09-24T06:45:51.193Z,17.60
2018-09-24T06:48:24.866Z,17.60
2018-09-24T06:50:58.595Z,17.60
2018-09-24T06:53:32.525Z,17.60
2018-09-24T06:56:06.497Z,17.60
2018-09-24T06:58:40.312Z,17.60
2018-09-24T07:01:13.988Z,17.60
2018-09-24T07:03:47.890Z,17.60
2018-09-24T07:06:21.613Z,17.60
2018-09-24T07:08:55.624Z,17.60
2018-09-24T07:11:29.449Z,17.60
2018-09-24T07:14:03.376Z,17.60
2018-09-24T07:16:37.259Z,17.60
2018-09-24T07:19:11.484Z,17.60
2018-09-24T07:21:45.396Z,17.60
2018-09-24T07:24:19.361Z,17.60
2018-09-24T07:26:53.269Z,17.60
2018-09-24T07:29:27.159Z,17.60
2018-09-24T07:32:01.104Z,17.60
2018-09-24T07:34:34.917Z,17.60
2018-09-24T07:37:08.648Z,17.60
2018-09-24T07:39:42.746Z,17.60
2018-09-24T07:42:16.661Z,17.60
2018-09-24T07:44:50.725Z,17.60
2018-09-24T07:47:24.621Z,17.60
2018-09-24T07:49:58.428Z,17.60
2018-09-24T07:52:32.262Z,17.60
2018-09-24T07:55:06.012Z,17.60
2018-09-24T07:57:39.994Z,17.60
2018-09-24T08:00:13.764Z,17.60
2018-09-24T08:02:47.736Z,17.60
2018-09-24T08:05:22.808Z,17.60
2018-09-24T08:07:56.845Z,17.60
2018-09-24T08:10:30.715Z,17.60
2018-09-24T08:13:04.529Z,17.60
2018-09-24T08:15:38.225Z,17.60
2018-09-24T08:18:12.259Z,17.60
2018-09-24T08:20:46.145Z,17.60
2018-09-24T08:23:20.211Z,17.60
2018-09-24T08:25:54.065Z,17.60
2018-09-24T08:28:27.940Z,17.60
2018-09-24T08:31:01.854Z,17.60
2018-09-24T08:33:35.720Z,17.60
2018-09-24T08:36:09.621Z,17.60
2018-09-24T08:38:43.404Z,17.60
2018-09-24T08:41:17.261Z,17.60
2018-09-24T08:43:51.132Z,17.60
2018-09-24T08:46:25.012Z,17.60
2018-09-24T08:48:58.812Z,17.60
2018-09-24T08:51:32.647Z,17.60
2018-09-24T08:54:06.449Z,17.60
2018-09-24T08:56:40.285Z,17.60
2018-09-24T08:59:14.124Z,17.60
2018-09-24T09:01:48.099Z,17.60
2018-09-24T09:04:22.103Z,17.60
2018-09-24T09:06:56.120Z,17.60
2018-09-24T09:09:30.504Z,17.60
2018-09-24T09:12:04.213Z,17.60
2018-09-24T09:14:38.057Z,17.60
2018-09-24T09:17:11.955Z,17.60
2018-09-24T09:19:45.615Z,17.60
2018-09-24T09:22:19.668Z,17.60
2018-09-24T09:24:53.624Z,17.60
2018-09-24T09:27:27.554Z,17.60
2018-09-24T09:30:01.324Z,17.60
2018-09-24T09:32:35.104Z,17.60
2018-09-24T09:35:08.971Z,17.60
2018-09-24T09:37:42.591Z,17.60
2018-09-24T09:40:16.656Z,17.60
2018-09-24T09:42:50.597Z,17.60
2018-09-24T09:45:24.346Z,17.60
2018-09-24T09:47:58.160Z,17.60
2018-09-24T09:50:31.786Z,17.60
2018-09-24T09:53:05.496Z,17.60
2018-09-24T09:55:39.455Z,17.60
2018-09-24T09:58:13.524Z,17.60
2018-09-24T10:00:47.378Z,17.60
2018-09-24T10:03:21.292Z,17.60
2018-09-24T10:05:55.233Z,17.60
2018-09-24T10:08:29.269Z,17.60
2018-09-24T10:11:02.972Z,17.60
2018-09-24T10:13:36.839Z,17.60
2018-09-24T10:16:10.645Z,17.60
2018-09-24T10:18:44.578Z,17.60
2018-09-24T10:21:18.252Z,17.60
2018-09-24T10:23:52.192Z,17.60
2018-09-24T10:26:26.063Z,17.60
2018-09-24T10:29:00.137Z,17.60
2018-09-24T10:31:34.009Z,17.60
2018-09-24T10:34:08.013Z,17.60
2018-09-24T10:36:41.730Z,17.60
2018-09-24T10:39:15.526Z,17.60
2018-09-24T10:41:49.311Z,17.60
2018-09-24T10:44:23.068Z,17.60
2018-09-24T10:46:56.836Z,17.60
2018-09-24T10:49:30.724Z,17.60
2018-09-24T10:52:04.473Z,17.60
2018-09-24T10:54:38.204Z,17.60
2018-09-24T10:57:12.107Z,17.60
2018-09-24T10:59:46.039Z,17.60
2018-09-24T11:02:19.948Z,17.60
2018-09-24T11:04:53.838Z,17.60
2018-09-24T11:07:27.788Z,17.60
2018-09-24T11:10:01.595Z,17.60
2018-09-24T11:12:35.232Z,17.60
2018-09-24T11:15:09.244Z,17.60
2018-09-24T11:17:43.295Z,17.60
2018-09-24T11:20:16.888Z,17.60
2018-09-24T11:22:50.713Z,17.60
2018-09-24T11:25:24.531Z,17.60
2018-09-24T11:27:58.428Z,17.60
2018-09-24T11:30:32.195Z,17.60
2018-09-24T11:33:05.908Z,17.60
2018-09-24T11:35:39.968Z,17.60
2018-09-24T11:38:13.838Z,17.60
2018-09-24T11:40:47.651Z,17.60
2018-09-24T11:43:21.465Z,17.60
2018-09-24T11:45:55.269Z,17.60
2018-09-24T11:48:29.224Z,17.60
2018-09-24T11:51:03.184Z,17.60
2018-09-24T11:53:37.216Z,17.60
2018-09-24T11:56:11.217Z,17.60
2018-09-24T11:58:45.033Z,17.60
2018-09-24T12:01:18.839Z,17.60
2018-09-24T12:03:52.760Z,17.60
2018-09-24T12:06:26.535Z,17.60
2018-09-24T12:09:00.584Z,17.60
2018-09-24T12:11:34.445Z,17.60
2018-09-24T12:14:08.300Z,17.60
2018-09-24T12:16:41.985Z,17.60
2018-09-24T12:19:16.111Z,17.60
2018-09-24T12:21:50.098Z,17.60
2018-09-24T12:24:24.048Z,17.60
2018-09-24T12:26:58.121Z,17.60
2018-09-24T12:29:32.049Z,17.60
2018-09-24T12:32:06.712Z,17.60
2018-09-24T12:34:40.354Z,17.60
2018-09-24T12:37:14.263Z,17.60
2018-09-24T12:39:48.241Z,17.60
2018-09-24T12:42:21.943Z,17.60
2018-09-24T12:44:55.903Z,17.60
2018-09-24T12:47:30.868Z,17.60
2018-09-24T12:50:04.806Z,17.60
2018-09-24T12:52:38.711Z,17.60
2018-09-24T12:55:12.556Z,17.60
2018-09-24T12:57:46.554Z,17.60
2018-09-24T13:00:20.393Z,17.60
2018-09-24T13:02:54.373Z,17.60
2018-09-24T13:05:28.287Z,17.60
2018-09-24T13:08:01.956Z,17.60
2018-09-24T13:10:35.689Z,17.60
2018-09-24T13:13:09.459Z,17.60
2018-09-24T13:15:43.335Z,17.60
2018-09-24T13:18:17.383Z,17.60
2018-09-24T13:20:51.217Z,17.60
2018-09-24T13:23:25.215Z,17.60
2018-09-24T13:25:59.084Z,17.60
2018-09-24T13:28:33.000Z,17.60
2018-09-24T13:31:06.806Z,17.60
2018-09-24T13:33:40.606Z,17.60
2018-09-24T13:36:14.346Z,17.60
2018-09-24T13:38:48.129Z,17.60
2018-09-24T13:41:21.936Z,17.60
2018-09-24T13:43:55.860Z,17.60
2018-09-24T13:46:29.804Z,17.60
2018-09-24T13:49:03.719Z,17.60
2018-09-24T13:51:37.725Z,17.60
2018-09-24T13:54:11.639Z,17.60
2018-09-24T13:56:45.260Z,17.60
2018-09-24T13:59:19.041Z,17.60
2018-09-24T14:01:52.966Z,17.60
2018-09-24T14:04:34.498Z,17.60
2018-09-24T14:07:08.486Z,17.60
2018-09-24T14:09:42.212Z,17.60
2018-09-24T14:12:16.229Z,17.60
2018-09-24T14:14:52.816Z,17.60
2018-09-24T14:17:26.659Z,17.60
2018-09-24T14:20:00.596Z,17.60
2018-09-24T14:22:34.696Z,17.60
2018-09-24T14:25:08.444Z,17.60
2018-09-24T14:27:42.400Z,17.60
2018-09-24T14:30:15.988Z,17.60
2018-09-24T14:32:49.801Z,17.60
2018-09-24T14:35:23.572Z,17.60
2018-09-24T14:37:57.387Z,17.60
2018-09-24T14:40:31.028Z,17.60
2018-09-24T14:43:04.967Z,17.60
2018-09-24T14:45:38.855Z,17.60
2018-09-24T14:48:12.847Z,17.60
2018-09-24T14:50:46.478Z,17.60
2018-09-24T14:53:20.374Z,17.60
2018-09-24T14:55:54.180Z,17.60
2018-09-24T14:58:28.164Z,17.60
2018-09-24T15:01:01.908Z,17.60
2018-09-24T15:03:35.920Z,17.60
2018-09-24T15:06:09.892Z,17.60
2018-09-24T15:08:43.634Z,17.60
2018-09-24T15:11:17.362Z,17.60
2018-09-24T15:13:51.057Z,17.60
2018-09-24T15:16:24.805Z,17.60
2018-09-24T15:18:58.517Z,17.60
2018-09-24T15:21:32.372Z,17.60
2018-09-24T15:24:06.281Z,17.60
2018-09-24T15:26:39.983Z,17.60
2018-09-24T15:29:13.812Z,17.60
2018-09-24T15:31:47.566Z,17.60
2018-09-24T15:34:21.506Z,17.60
2018-09-24T15:36:55.329Z,17.60
2018-09-24T15:39:29.177Z,17.60
2018-09-24T15:42:03.092Z,17.60
2018-09-24T15:44:37.083Z,17.60
2018-09-24T15:47:10.955Z,17.60
2018-09-24T15:49:44.685Z,17.60
2018-09-24T15:52:18.542Z,17.60
2018-09-24T15:54:52.272Z,17.60
2018-09-24T15:57:26.020Z,17.60
2018-09-24T16:00:00.080Z,17.60
2018-09-24T16:02:33.978Z,17.60
2018-09-24T16:05:07.693Z,17.60
2018-09-24T16:07:41.386Z,17.60
2018-09-24T16:10:15.046Z,17.60
2018-09-24T16:12:48.994Z,17.60
2018-09-24T16:15:22.924Z,17.60
2018-09-24T16:17:56.867Z,17.60
2018-09-24T16:20:30.811Z,17.60
2018-09-24T16:23:04.641Z,17.60
2018-09-24T16:25:38.651Z,17.60
2018-09-24T16:28:12.497Z,17.60
2018-09-24T16:30:46.539Z,17.60
2018-09-24T16:33:20.449Z,17.60
2018-09-24T16:35:54.383Z,17.60
2018-09-24T16:38:28.308Z,17.60
2018-09-24T16:41:02.344Z,17.60
2018-09-24T16:43:36.193Z,17.60
2018-09-24T16:46:10.108Z,17.60
2018-09-24T16:48:43.965Z,17.60
2018-09-24T16:51:17.853Z,17.60
2018-09-24T16:53:51.584Z,17.60
2018-09-24T16:56:25.416Z,17.60
2018-09-24T16:58:59.380Z,17.60
2018-09-24T17:01:33.383Z,17.60
2018-09-24T17:04:07.221Z,17.60
2018-09-24T17:06:41.032Z,17.60
2018-09-24T17:09:15.152Z,17.60
2018-09-24T17:11:48.902Z,17.60
2018-09-24T17:14:22.727Z,17.60
2018-09-24T17:16:56.441Z,17.60
2018-09-24T17:19:30.224Z,17.60
2018-09-24T17:22:04.153Z,17.60
2018-09-24T17:24:37.876Z,17.60
2018-09-24T17:27:11.837Z,17.60
2018-09-24T17:29:45.785Z,17.60
2018-09-24T17:32:19.539Z,17.60
2018-09-24T17:34:53.396Z,17.60
2018-09-24T17:37:27.228Z,17.50
2018-09-24T17:40:01.020Z,17.60
2018-09-24T17:42:34.840Z,17.50
2018-09-24T17:45:08.550Z,17.60
2018-09-24T17:47:42.436Z,17.60
2018-09-24T17:50:16.232Z,17.60
2018-09-24T17:52:50.114Z,17.50
2018-09-24T17:55:24.122Z,17.50
2018-09-24T17:57:57.985Z,17.50
2018-09-24T18:00:31.915Z,17.50
2018-09-24T18:03:12.640Z,17.50
2018-09-24T18:05:46.463Z,17.50
2018-09-24T18:08:20.265Z,17.50
2018-09-24T18:10:54.048Z,17.50
2018-09-24T18:13:27.774Z,17.50
2018-09-24T18:16:01.604Z,17.50
2018-09-24T18:18:35.511Z,17.50
2018-09-24T18:21:09.368Z,17.50
2018-09-24T18:23:43.242Z,17.50
2018-09-24T18:26:17.000Z,17.50
2018-09-24T18:28:50.782Z,17.50
2018-09-24T18:31:24.744Z,17.50
2018-09-24T18:33:58.767Z,17.50
2018-09-24T18:36:32.859Z,17.50
2018-09-24T18:39:06.594Z,17.50
2018-09-24T18:41:40.491Z,17.50
2018-09-24T18:44:15.873Z,17.50
2018-09-24T18:46:49.900Z,17.50
2018-09-24T18:49:23.752Z,17.50
2018-09-24T18:51:57.686Z,17.50
2018-09-24T18:54:31.486Z,17.50
2018-09-24T18:57:05.240Z,17.50
2018-09-24T18:59:39.544Z,17.50
2018-09-24T19:02:13.221Z,17.50
2018-09-24T19:04:47.057Z,17.50
2018-09-24T19:07:20.781Z,17.50
2018-09-24T19:09:54.514Z,17.50
2018-09-24T19:12:28.579Z,17.50
2018-09-24T19:15:02.918Z,17.50
2018-09-24T19:17:36.952Z,17.50
2018-09-24T19:20:10.912Z,17.50
2018-09-24T19:22:44.501Z,17.50
2018-09-24T19:25:18.135Z,17.50
2018-09-24T19:27:52.165Z,17.50
2018-09-24T19:30:26.227Z,17.50
2018-09-24T19:33:00.200Z,17.50
2018-09-24T19:35:34.200Z,17.50
2018-09-24T19:38:08.025Z,17.50
2018-09-24T19:40:41.810Z,17.50
2018-09-24T19:43:15.656Z,17.50
2018-09-24T19:45:49.436Z,17.40
2018-09-24T19:48:23.207Z,17.50
2018-09-24T19:50:57.200Z,17.40
2018-09-24T19:53:40.533Z,17.40
2018-09-24T19:56:14.384Z,17.50
2018-09-24T19:58:48.219Z,17.40
2018-09-24T20:01:21.923Z,17.40
2018-09-24T20:03:55.793Z,17.40
2018-09-24T20:06:29.596Z,17.40
2018-09-24T20:09:03.303Z,17.40
2018-09-24T20:11:37.384Z,17.40
2018-09-24T20:14:11.361Z,17.40
2018-09-24T20:16:45.370Z,17.40
2018-09-24T20:19:19.276Z,17.40
2018-09-24T20:21:53.074Z,17.40
2018-09-24T20:24:26.821Z,17.40
2018-09-24T20:27:00.713Z,17.40
2018-09-24T20:29:34.705Z,17.40
2018-09-24T20:32:08.396Z,17.40
2018-09-24T20:34:42.183Z,17.40
2018-09-24T20:37:16.252Z,17.40
2018-09-24T20:39:50.042Z,17.40
2018-09-24T20:42:23.929Z,17.40
2018-09-24T20:44:57.724Z,17.40
2018-09-24T20:47:31.607Z,17.40
2018-09-24T20:50:05.425Z,17.40
2018-09-24T20:52:39.396Z,17.40
2018-09-24T20:55:13.426Z,17.40
2018-09-24T20:57:47.448Z,17.40
2018-09-24T21:00:21.231Z,17.40
2018-09-24T21:02:55.084Z,17.40
2018-09-24T21:05:28.929Z,17.40
2018-09-24T21:08:02.640Z,17.30
2018-09-24T21:10:36.701Z,17.30
2018-09-24T21:13:10.649Z,17.30
2018-09-24T21:15:44.643Z,17.30
2018-09-24T21:18:18.593Z,17.30
2018-09-24T21:20:52.300Z,17.30
2018-09-24T21:23:26.420Z,17.30
2018-09-24T21:26:00.108Z,17.30
2018-09-24T21:28:34.287Z,17.30
2018-09-24T21:31:08.297Z,17.30
2018-09-24T21:33:42.405Z,17.30
2018-09-24T21:36:16.220Z,17.30
2018-09-24T21:38:50.193Z,17.30
2018-09-24T21:41:23.922Z,17.30
2018-09-24T21:43:57.881Z,17.30
2018-09-24T21:46:31.739Z,17.30
2018-09-24T21:49:05.652Z,17.30
2018-09-24T21:51:39.567Z,17.30
2018-09-24T21:54:13.369Z,17.30
2018-09-24T21:56:47.276Z,17.30
2018-09-24T21:59:21.047Z,17.30
2018-09-24T22:01:54.909Z,17.30
2018-09-24T22:04:28.728Z,17.30
2018-09-24T22:07:02.591Z,17.30
2018-09-24T22:09:36.417Z,17.30
2018-09-24T22:12:10.297Z,17.30
2018-09-24T22:14:44.093Z,17.30
2018-09-24T22:17:18.007Z,17.30
2018-09-24T22:19:51.827Z,17.30
2018-09-24T22:22:25.744Z,17.30
2018-09-24T22:24:59.616Z,17.30
2018-09-24T22:27:33.280Z,17.30
2018-09-24T22:30:07.259Z,17.30
2018-09-24T22:32:41.224Z,17.20
2018-09-24T22:35:14.908Z,17.20
2018-09-24T22:37:48.862Z,17.20
2018-09-24T22:40:22.827Z,17.20
2018-09-24T22:42:56.520Z,17.30
2018-09-24T22:45:30.300Z,17.20
2018-09-24T22:48:04.120Z,17.20
2018-09-24T22:50:37.936Z,17.20
2018-09-24T22:53:11.764Z,17.20
2018-09-24T22:55:45.539Z,17.20
2018-09-24T22:58:19.411Z,17.20
2018-09-24T23:00:53.177Z,17.20
2018-09-24T23:03:26.972Z,17.20
2018-09-24T23:06:00.804Z,17.20
2018-09-24T23:08:34.693Z,17.20
2018-09-24T23:11:08.480Z,17.20
2018-09-24T23:13:42.196Z,17.20
2018-09-24T23:16:15.993Z,17.20
2018-09-24T23:18:49.796Z,17.20
2018-09-24T23:21:23.623Z,17.20
2018-09-24T23:23:57.409Z,17.20
2018-09-24T23:26:31.350Z,17.20
2018-09-24T23:29:05.356Z,17.20
2018-09-24T23:31:39.015Z,17.20
2018-09-24T23:34:12.802Z,17.20
2018-09-24T23:36:46.916Z,17.20
2018-09-24T23:39:20.644Z,17.20
2018-09-24T23:41:54.560Z,17.20
2018-09-24T23:44:28.372Z,17.20
2018-09-24T23:47:02.063Z,17.20
2018-09-24T23:49:35.956Z,17.20
2018-09-24T23:52:09.768Z,17.20
2018-09-24T23:54:43.592Z,17.20
2018-09-24T23:57:17.328Z,17.20
2018-09-24T23:59:51.268Z,17.20
